Bathgate, ND (58216)

4:28 PM CDT on September 04, 2015 (GMT -0500)
Cavalier | | Change Station
CLOSE
Current Station
Airport
Location: Cavalier,
Elevation: 892 ft
Nearby Weather Stations

Elev 892 ft 48.78 °N, 97.63 °W | Updated 13 minutes ago

Rain
Rain
66 °F
Feels Like 66 °F
N
5
Wind Variable Wind from NE

Today
High -- | Low -- °F
--% Chance of Precip.
Yesterday
High -- | Low -- °F
Precip. -- in
6:50 AM 8:06 PM
Waning Gibbous, 56% visible
Pressure 29.78 in
Visibility 10.0 miles
Clouds Clear
Dew Point 63 °F
Humidity 88%
Rainfall 1.22 in
Snow Depth Not available.
UV 4 out of 12
Pollen 11.60 out of 12
Air Quality Not available.
Flu Activity Not available.
METAR K2C8 042115Z AUTO 04004KT 10SM CLR 19/17 A2978 RMK AO2
Pressure 29.78 in
Visibility 10.0 miles
Clouds Clear
Dew Point 63 °F
Humidity 88%
Rainfall 1.22 in
Snow Depth Not available.
UV 4 out of 12
Pollen 11.60 out of 12
Air Quality Not available.
Flu Activity Not available.
METAR K2C8 042115Z AUTO 04004KT 10SM CLR 19/17 A2978 RMK AO2

10-Day Weather Forecast

×

Almanac

Astronomy

Sep. 04, 2015 Rise Set
Actual Time
Civil Twilight
Nautical Twilight
Astronomical Twilight
Moon
Length of Visible Light
Length of Day
Tomorrow will be .
, % of the Moon is Illuminated

Today's Extremes

State Highs State Lows

Community

WunderPhotos

Upload Photos

1,852,297 photos uploaded!

WunderBlogs® & News

Nearby

Air Quality

  Air Quality AQ Index Pollutant
Not available.

Snow Depth

Station Depth Elevation

Earthquake Activity

City Distance Mag. Time & Date
Minimum magnitude displayed is 2.5.

Coastal Water Temperatures

Place Temperature

Stations

Nearby Weather Stations

Station Location Temp. Windchill Dew Point Humidity Wind Precip. Elev Updated Type